TimePST,TemperatureF,Dew PointF,Humidity,Sea Level PressureIn,VisibilityMPH,Wind Direction,Wind SpeedMPH,Gust SpeedMPH,PrecipitationIn,Events,Conditions,WindDirDegrees,DateUTC
12:15 AM,53.6,51.8,94,30.03,7.0,Calm,Calm,-,N/A,Rain,Light Rain,0,2012-11-18 08:15:00
12:35 AM,55.4,50.0,82,30.03,10.0,WNW,4.6,-,N/A,,Overcast,300,2012-11-18 08:35:00
12:55 AM,55.4,50.0,82,30.04,10.0,WNW,4.6,-,N/A,,Overcast,300,2012-11-18 08:55:00
1:15 AM,55.4,50.0,82,30.03,10.0,Calm,Calm,-,N/A,,Overcast,0,2012-11-18 09:15:00
1:35 AM,55.4,50.0,82,30.04,10.0,Calm,Calm,-,N/A,,Overcast,0,2012-11-18 09:35:00
1:55 AM,55.4,50.0,82,30.05,10.0,Calm,Calm,-,N/A,,Overcast,0,2012-11-18 09:55:00
2:15 AM,55.4,50.0,82,30.05,10.0,WNW,3.5,-,N/A,,Overcast,290,2012-11-18 10:15:00
2:35 AM,55.4,50.0,82,30.05,10.0,NW,4.6,-,N/A,,Overcast,310,2012-11-18 10:35:00
2:55 AM,55.4,50.0,82,30.05,10.0,Calm,Calm,-,N/A,,Overcast,0,2012-11-18 10:55:00
3:15 AM,55.4,50.0,82,30.05,10.0,Calm,Calm,-,N/A,,Overcast,0,2012-11-18 11:15:00
3:35 AM,53.6,50.0,88,30.06,10.0,Calm,Calm,-,N/A,,Overcast,0,2012-11-18 11:35:00
4:15 AM,53.6,50.0,88,30.06,10.0,West,3.5,-,N/A,,Partly Cloudy,270,2012-11-18 12:15:00
4:35 AM,51.8,50.0,94,30.06,10.0,South,4.6,-,N/A,,Scattered Clouds,170,2012-11-18 12:35:00
4:55 AM,51.8,50.0,94,30.08,10.0,Calm,Calm,-,N/A,,Overcast,0,2012-11-18 12:55:00
5:15 AM,50.0,50.0,100,30.08,10.0,Calm,Calm,-,N/A,,Overcast,0,2012-11-18 13:15:00
5:35 AM,50.0,50.0,100,30.08,10.0,Calm,Calm,-,N/A,,Overcast,0,2012-11-18 13:35:00
5:55 AM,50.0,50.0,100,30.08,10.0,SSE,3.5,-,N/A,,Overcast,160,2012-11-18 13:55:00
6:15 AM,50.0,48.2,94,30.09,10.0,South,4.6,-,N/A,,Mostly Cloudy,190,2012-11-18 14:15:00
6:35 AM,50.0,48.2,94,30.09,10.0,SW,3.5,-,N/A,,Partly Cloudy,220,2012-11-18 14:35:00
6:47 AM,50.0,48.2,94,30.09,10.0,Calm,Calm,-,N/A,,Scattered Clouds,0,2012-11-18 14:47:00
6:55 AM,50.0,48.2,94,30.09,10.0,Calm,Calm,-,N/A,,Clear,0,2012-11-18 14:55:00
7:53 AM,50.0,48.2,94,30.12,10.0,Calm,Calm,-,N/A,,Mostly Cloudy,0,2012-11-18 15:53:00
8:47 AM,55.4,50.0,82,30.12,10.0,SSE,4.6,-,N/A,,Mostly Cloudy,160,2012-11-18 16:47:00
9:52 AM,57.2,50.0,77,30.14,10.0,Calm,Calm,-,N/A,,Mostly Cloudy,0,2012-11-18 17:52:00
10:47 AM,59.0,48.2,67,30.15,10.0,ESE,3.5,-,N/A,,Mostly Cloudy,120,2012-11-18 18:47:00
11:57 AM,59.0,48.2,67,30.13,10.0,North,3.5,-,N/A,,Mostly Cloudy,350,2012-11-18 19:57:00
12:52 PM,62.6,42.8,48,30.13,10.0,SSW,4.6,-,N/A,,Mostly Cloudy,200,2012-11-18 20:52:00
1:49 PM,62.6,41.0,45,30.13,10.0,West,8.1,-,N/A,,Mostly Cloudy,270,2012-11-18 21:49:00
2:52 PM,60.8,39.2,45,30.12,10.0,SSW,3.5,-,N/A,,Overcast,200,2012-11-18 22:52:00
3:47 PM,60.8,39.2,45,30.12,10.0,SE,4.6,-,N/A,,Overcast,140,2012-11-18 23:47:00
4:51 PM,59.0,48.2,67,30.15,10.0,Variable,4.6,-,N/A,,Overcast,0,2012-11-19 00:51:00
5:48 PM,57.2,48.2,72,30.15,10.0,Variable,3.5,-,N/A,,Overcast,0,2012-11-19 01:48:00
6:49 PM,57.2,46.4,67,30.15,10.0,Variable,3.5,-,N/A,,Overcast,0,2012-11-19 02:49:00
7:49 PM,57.2,46.4,67,30.15,10.0,SSW,3.5,-,N/A,,Mostly Cloudy,200,2012-11-19 03:49:00
9:15 PM,57.2,44.6,63,30.18,10.0,SSW,4.6,-,N/A,,Overcast,210,2012-11-19 05:15:00
9:35 PM,57.2,44.6,63,30.18,10.0,South,3.5,-,N/A,,Overcast,190,2012-11-19 05:35:00
9:55 PM,55.4,46.4,72,30.18,10.0,Calm,Calm,-,N/A,,Overcast,0,2012-11-19 05:55:00
10:15 PM,55.4,46.4,72,30.18,10.0,Calm,Calm,-,N/A,,Overcast,0,2012-11-19 06:15:00
10:35 PM,55.4,48.2,77,30.19,10.0,Calm,Calm,-,N/A,,Mostly Cloudy,0,2012-11-19 06:35:00
10:55 PM,55.4,46.4,72,30.19,10.0,Calm,Calm,-,N/A,,Mostly Cloudy,0,2012-11-19 06:55:00
11:15 PM,55.4,48.2,77,30.19,10.0,Calm,Calm,-,N/A,,Overcast,0,2012-11-19 07:15:00
11:35 PM,55.4,48.2,77,30.18,10.0,Calm,Calm,-,N/A,,Overcast,0,2012-11-19 07:35:00
11:55 PM,55.4,50.0,82,30.18,10.0,Calm,Calm,-,N/A,,Mostly Cloudy,0,2012-11-19 07:55:00